Wednesday, August 15, 2018, 3:43 AM CDT
Back to Local

KVPZ, Valparaiso Porter Co Muni

Location: Valparaiso, IN, United States Lat: 41.45
Local Time: 3:43 AM CDT ( 8:43 GMT) Lon: -87
Time Zone: US/Central Elev: 770 ft

Show me the last for .
Show Coded

Time T Td Feel RH Dir Speed Gust Alt SLP Vis Weather Sky Remarks
2018-08-15 02:56 68 63 - 83 - Calm - 29.97 29.95 0 CLR None
2018-08-15 01:56 72 63 76 73 - Calm - 29.96 29.94 0 CLR None
2018-08-15 00:56 70 64 - 81 180° 3 - 29.97 29.95 0 CLR 6-hr Min Temp (1am): 70.0°F
6-hr Max Temp (1am): 82.0°F
24-hr Min Temp (1am): 63.0°F
24-hr Max Temp (1am): 90.0°F
2018-08-14 23:56 72 64 76 76 200° 3 - 29.98 29.96 0 CLR None
2018-08-14 22:56 71 65 76 81 - Calm - 29.99 29.97 0 CLR None
2018-08-14 21:56 75 64 78 68 - Calm - 29.99 29.97 0 CLR None
2018-08-14 20:56 78 64 80 62 220° 3 - 29.98 29.96 0 CLR None
2018-08-14 19:56 80 63 82 56 200° 5 - 29.98 29.96 0 CLR None
2018-08-14 18:56 82 63 84 52 190° 5 - 29.97 29.95 0 CLR 6-hr Min Temp (7pm): 82.0°F
6-hr Max Temp (7pm): 90.0°F
2018-08-14 17:56 85 62 86 46 200° 8 - 29.98 29.96 0 CLR None
2018-08-14 16:56 87 62 88 43 150° 5 - 29.98 29.96 0 BKN060 None
2018-08-14 15:56 86 61 87 43 210° 5 - 29.99 29.97 0 CLR None
2018-08-14 14:56 88 58 - 36 230° 8 - 29.99 29.98 0 CLR None
2018-08-14 13:56 88 59 - 37 180° 6 - 30.01 29.99 0 FEW055 None
2018-08-14 12:56 87 60 88 40 210° 6 - 30.01 29.99 0 CLR 6-hr Min Temp (1pm): 68.0°F
6-hr Max Temp (1pm): 87.1°F
2018-08-14 11:56 87 62 88 43 250° 7 - 30.02 30.01 0 CLR None
2018-08-14 10:56 85 61 86 44 280° 7 - 30.03 30.01 0 CLR None
2018-08-14 09:56 81 64 83 56 270° 6 - 30.03 30.01 0 CLR None
2018-08-14 08:56 77 64 79 64 270° 3 - 30.03 30.01 0 CLR None
2018-08-14 07:56 71 63 76 75 280° 6 - 30.03 30.01 0 CLR None
2018-08-14 06:56 67 62 - 84 220° 5 - 30.02 30.01 0 CLR 6-hr Min Temp (7am): 63.0°F
6-hr Max Temp (7am): 69.1°F
2018-08-14 05:56 66 62 - 87 220° 3 - 30.02 30.00 0 FEW055 None
2018-08-14 04:56 64 60 - 86 - Calm - 30.01 29.99 0 CLR None
2018-08-14 03:56 64 60 - 86 - Calm - 30.01 29.99 0 FEW004 None
2018-08-14 03:47 64 60 - 86 70° 3 - 30.00 - 0 FEW004 None

Support USWX by starting your Amazon purchase here.